• Join FlightAware (Why Join?)
  • Login
  • US Flag 
06:01AM EDT


 

Airport Tracker/Info


-or-


 

Live Flight TrackerFlight Track Log ✈ N960DL ✈ 09-Jun-2013 ✈ KDTW - KMSP

Flight Track Log - Related Links

Times and Time Zones

All times are in EDT time to prevent confusion due to time zone crossing. See the N960DL flight status page for this flight to view local times or setup timezone preferences in your user account.

Time Position Orientation Groundspeed Altitude Reporting Facility
EDT Latitude Longitude Course Direction KTS MPH feet Rate Location/Type
08:45PM 42.2356 -83.3289 North 157 181 1,600  Level Cleveland Center
08:47PM 42.3236 -83.3131 North 265 305 3,600 1,800 Climbing Cleveland Center
08:48PM 42.3928 -83.2906 14° North 292 336 5,800 2,460 Climbing Cleveland Center
08:49PM 42.4722 -83.2856 North 300 345 8,400 2,520 Climbing Cleveland Center
08:49PM 42.5469 -83.2972 353° North 308 354 10,600 2,040 Climbing Cleveland Center
08:50PM 42.6300 -83.3150 351° North 351 404 12,300 1,200 Climbing Cleveland Center
08:51PM 42.7275 -83.3333 352° North 351 404 13,000 1,020 Climbing Cleveland Center
08:52PM 42.8292 -83.3519 352° North 351 404 14,400 1,260 Climbing Cleveland Center
08:53PM 42.9414 -83.3711 353° North 372 428 15,600 1,500 Climbing Cleveland Center
08:54PM 43.0642 -83.3739 359° North 408 470 17,500 2,040 Climbing Cleveland Center
08:55PM 43.1936 -83.4508 337° Northwest 443 510 19,700 1,740 Climbing Cleveland Center
08:56PM 43.3106 -83.5275 335° Northwest 455 524 21,000 1,500 Climbing Cleveland Center
08:57PM 43.4294 -83.6047 335° Northwest 460 529 22,800 1,740 Climbing Cleveland Center
08:58PM 43.4792 -83.6486 327° Northwest 476 548 23,800 1,920 Climbing Minneapolis Center
08:59PM 43.5350 -83.8008 297° West 450 518 25,900 1,860 Climbing Minneapolis Center
09:00PM 43.5836 -83.9894 290° West 439 505 27,800 1,500 Climbing Minneapolis Center
09:01PM 43.6228 -84.1461 289° West 436 502 29,200 1,020 Climbing Minneapolis Center
09:02PM 43.6636 -84.3008 290° West 432 497 30,000 360 Climbing Minneapolis Center
09:03PM 43.7031 -84.4550 290° West 429 494 30,000 180 Level Minneapolis Center
09:04PM 43.7414 -84.6111 289° West 430 495 30,400 480 Climbing Minneapolis Center
09:05PM 43.7883 -84.8014 289° West 436 502 31,000 1,080 Climbing Minneapolis Center
09:06PM 43.8272 -84.9589 289° West 436 502 32,700 1,140 Climbing Minneapolis Center
09:07PM 43.8633 -85.1114 288° West 424 488 33,400 540 Climbing Minneapolis Center
09:08PM 43.9003 -85.2639 289° West 420 483 33,900 240 Climbing Minneapolis Center
09:09PM 43.9381 -85.4186 289° West 423 487 34,000  Climbing Minneapolis Center
09:10PM 43.9744 -85.5725 288° West 424 488 34,000  Level Minneapolis Center
09:11PM 44.0175 -85.7567 288° West 423 487 34,000  Level Minneapolis Center
09:13PM 44.0544 -85.9106 289° West 422 486 34,000  Level Minneapolis Center
09:14PM 44.0900 -86.0669 288° West 426 490 34,000  Level Minneapolis Center
09:15PM 44.1278 -86.2292 288° West 428 493 34,000  Level Minneapolis Center
09:16PM 44.1644 -86.3878 288° West 428 493 34,000  Level Minneapolis Center
09:17PM 44.2003 -86.5450 288° West 426 490 34,000 -180 Level Minneapolis Center
09:18PM 44.2422 -86.7358 287° West 428 493 33,700 -1,020 Descending Minneapolis Center
09:19PM 44.2767 -86.8969 287° West 431 496 32,000 -840 Descending Minneapolis Center
09:20PM 44.3122 -87.0578 287° West 434 499 32,000  Level Minneapolis Center
09:21PM 44.3475 -87.2161 287° West 433 498 32,000  Level Minneapolis Center
09:22PM 44.3825 -87.3775 287° West 435 501 32,000  Level Minneapolis Center
09:23PM 44.4244 -87.5703 287° West 444 511 32,000  Level Minneapolis Center
09:24PM 44.4589 -87.7333 287° West 441 507 32,000  Level Minneapolis Center
09:25PM 44.4964 -87.9069 287° West 442 509 32,000  Level Minneapolis Center
09:26PM 44.5286 -88.0606 286° West 439 505 32,000  Level Minneapolis Center
09:27PM 44.5611 -88.2261 285° West 441 507 32,000  Level Minneapolis Center
09:28PM 44.5836 -88.4211 279° West 435 501 32,000  Level Minneapolis Center
09:29PM 44.6033 -88.5872 280° West 433 498 32,000  Level Minneapolis Center
09:30PM 44.6219 -88.7553 279° West 435 501 32,000  Level Minneapolis Center
09:31PM 44.6403 -88.9244 279° West 437 503 32,000  Level Minneapolis Center
09:32PM 44.6586 -89.0919 279° West 436 502 32,000  Level Minneapolis Center
09:33PM 44.6775 -89.2606 279° West 437 503 32,000  Level Minneapolis Center
09:34PM 44.6989 -89.4575 279° West 438 504 32,000  Level Minneapolis Center
09:35PM 44.7167 -89.6264 278° West 438 504 32,000  Level Minneapolis Center
09:36PM 44.7342 -89.7942 278° West 435 501 32,000  Level Minneapolis Center
09:37PM 44.7519 -89.9631 278° West 438 504 32,000  Level Minneapolis Center
09:38PM 44.7703 -90.1306 279° West 434 499 32,000  Level Minneapolis Center
09:39PM 44.7872 -90.2989 278° West 434 499 32,000  Level Minneapolis Center
09:40PM 44.8028 -90.4664 278° West 433 498 32,000  Level Minneapolis Center
09:41PM 44.8200 -90.6381 278° West 430 495 32,000  Level Minneapolis Center
09:42PM 44.8450 -90.8094 282° West 433 498 32,000 -900 Level Minneapolis Center
09:43PM 44.8733 -91.0028 282° West 432 497 30,200 -2,580 Descending Minneapolis Center
09:44PM 44.8944 -91.1689 280° West 432 497 26,800 -2,940 Descending Minneapolis Center
09:45PM 44.9181 -91.3367 281° West 437 503 24,200 -2,520 Descending Minneapolis Center
09:46PM 44.9422 -91.4989 282° West 430 495 21,700 -2,460 Descending Minneapolis Center
09:48PM 44.9633 -91.6572 281° West 419 482 19,200 -2,400 Descending Minneapolis Center
09:49PM 44.9839 -91.8111 281° West 410 472 16,800 -2,340 Descending Minneapolis Center
09:50PM 45.0067 -91.9631 282° West 396 456 14,500 -2,160 Descending Minneapolis Center
09:51PM 45.0244 -92.1075 280° West 377 434 12,400 -1,740 Descending Minneapolis Center
09:52PM 45.0450 -92.2750 280° West 364 419 11,000 -720 Descending Minneapolis Center
09:53PM 45.0275 -92.4114 260° West 358 412 11,000  Level Minneapolis Center
09:54PM 45.0067 -92.5475 258° West 358 412 11,000  Level Minneapolis Center
09:55PM 44.9856 -92.6819 258° West 354 407 11,000  Level Minneapolis Center
09:56PM 44.9642 -92.8150 257° West 350 403 11,000 -480 Level Minneapolis Center
09:57PM 44.9447 -92.9308 257° West 307 353 10,100 -1,320 Descending Minneapolis Center
09:58PM 44.9261 -93.0625 259° West 290 334 8,300 -1,200 Descending Minneapolis Center
09:59PM 44.9614 -93.1514 299° West 259 298 7,700 -1,020 Descending Minneapolis Center
10:00PM 45.0003 -93.2286 305° West 245 282 6,300 -1,380 Descending Minneapolis Center
10:01PM 45.0389 -93.3042 306° West 240 276 4,900 -1,140 Descending Minneapolis Center
10:02PM 45.0767 -93.3783 306° West 236 272 4,000 -480 Descending Minneapolis Center
10:03PM 45.0833 -93.4600 277° West 209 241 4,000  Level Minneapolis Center
10:04PM 45.0358 -93.4850 200° South 194 223 4,000  Level Minneapolis Center
10:05PM 44.9858 -93.4356 145° Southeast 195 224 4,100 60 Climbing Minneapolis Center